Terminal Aerodrome Forecast
Issued by NWS

Home | Current Version | Previous Version | Text Only | Print | Product List | Glossary On
Versions: 1 2 3 4 5 6 7 8 9 10 11 12 13 14 15 16 17 18
000
FTUS46 KSEW 211144
TAFBFI
TAF
KBFI 211144Z 2112/2212 VRB03KT P6SM BKN050 OVC080
     FM211800 14005KT P6SM VCSH BKN050 BKN080
     FM220000 14005KT P6SM -SHRA BKN040 OVC070
     FM220600 14005KT P6SM VCSH SCT040 BKN070=

USA.gov is the U.S. government's official web portal to all federal, state and local government web resources and services.